Time;durP1;ratioP1;P1;durP2;ratioP2;P2;SDS_P1;SDS_P2;PMS_P1;PMS_P2;Temp;Humidity;BMP_temperature;BMP_pressure;BME280_temperature;BME280_humidity;BME280_pressure;Samples;Min_cycle;Max_cycle;Signal;HPM_P1;HPM_P2
2022/11/09 00:01:27;;;;;;;6.68;4.97;;;6.00;80.50;;;;;;5068521;28;20232;-66
2022/11/09 00:03:57;;;;;;;7.43;5.28;;;6.00;80.70;;;;;;5070271;28;20233;-66
2022/11/09 00:06:24;;;;;;;7.95;5.40;;;5.90;80.80;;;;;;5069604;28;20198;-67
2022/11/09 00:08:52;;;;;;;8.07;5.22;;;5.90;81.50;;;;;;5071074;28;20190;-66
2022/11/09 00:11:19;;;;;;;5.97;4.20;;;5.90;81.30;;;;;;5070623;28;20194;-66
2022/11/09 00:13:47;;;;;;;7.30;5.22;;;5.90;81.30;;;;;;5071279;28;20631;-66
2022/11/09 00:16:17;;;;;;;10.93;5.10;;;5.80;80.70;;;;;;5071053;28;20178;-66
2022/11/09 00:18:46;;;;;;;7.82;5.35;;;5.80;80.20;;;;;;5071303;28;20196;-66
2022/11/09 00:21:16;;;;;;;7.05;5.40;;;5.70;80.60;;;;;;5070692;28;20189;-66
2022/11/09 00:23:44;;;;;;;6.72;4.63;;;5.60;80.70;;;;;;5071034;28;20173;-66
2022/11/09 00:26:13;;;;;;;7.93;5.28;;;5.60;80.80;;;;;;5070607;28;20190;-66
2022/11/09 00:28:40;;;;;;;7.93;4.63;;;5.60;81.10;;;;;;5071050;28;20331;-66
2022/11/09 00:31:11;;;;;;;7.65;4.53;;;5.60;81.70;;;;;;5071015;28;20596;-67
2022/11/09 00:33:38;;;;;;;6.88;4.35;;;5.60;81.40;;;;;;5071248;28;20182;-67
2022/11/09 00:36:07;;;;;;;6.28;3.92;;;5.60;81.90;;;;;;5071144;28;20189;-68
2022/11/09 00:38:37;;;;;;;6.60;4.65;;;5.50;83.60;;;;;;5071310;28;20186;-66
2022/11/09 00:41:04;;;;;;;5.57;4.20;;;5.50;83.20;;;;;;5071533;28;20275;-66
2022/11/09 00:43:32;;;;;;;10.07;4.88;;;5.50;83.70;;;;;;5070589;28;20228;-67
2022/11/09 00:45:59;;;;;;;7.07;4.38;;;5.50;84.50;;;;;;5071171;28;20575;-66
2022/11/09 00:48:26;;;;;;;11.40;5.20;;;5.40;85.20;;;;;;5070109;28;20632;-66
2022/11/09 00:50:55;;;;;;;8.98;5.22;;;5.40;85.20;;;;;;5070961;28;20631;-66
2022/11/09 00:53:23;;;;;;;7.55;4.38;;;5.40;85.30;;;;;;5070245;28;20209;-67
2022/11/09 00:55:57;;;;;;;5.45;4.22;;;5.50;84.80;;;;;;5070694;28;20193;-66
2022/11/09 00:58:24;;;;;;;7.97;3.83;;;5.50;84.30;;;;;;5070705;28;20213;-66
2022/11/09 01:00:52;;;;;;;5.60;3.38;;;5.40;84.60;;;;;;5070828;28;20190;-66
2022/11/09 01:03:20;;;;;;;4.68;2.58;;;5.40;85.00;;;;;;5070449;28;20597;-66
2022/11/09 01:05:47;;;;;;;3.40;2.20;;;5.40;86.10;;;;;;5070996;28;20186;-66
2022/11/09 01:08:15;;;;;;;4.40;2.53;;;5.40;85.60;;;;;;5070382;28;20189;-66
2022/11/09 01:10:44;;;;;;;6.47;2.38;;;5.40;85.40;;;;;;5070828;28;20200;-67
2022/11/09 01:13:15;;;;;;;4.00;2.15;;;5.40;85.80;;;;;;5072901;28;20186;-67
2022/11/09 01:15:44;;;;;;;5.97;2.50;;;5.40;86.00;;;;;;5073996;28;20218;-66
2022/11/09 01:18:11;;;;;;;5.40;2.97;;;5.30;86.40;;;;;;5073848;28;20209;-67
2022/11/09 01:20:42;;;;;;;5.22;3.30;;;5.30;86.90;;;;;;5074215;28;20201;-67
2022/11/09 01:23:11;;;;;;;8.52;2.90;;;5.30;87.30;;;;;;5074401;28;20186;-67
2022/11/09 01:25:39;;;;;;;4.65;3.00;;;5.40;87.40;;;;;;5074358;28;20196;-66
2022/11/09 01:28:07;;;;;;;5.38;2.72;;;5.40;87.30;;;;;;5073323;28;20231;-67
2022/11/09 01:30:37;;;;;;;3.75;2.15;;;5.50;87.30;;;;;;5074095;28;20189;-66
2022/11/09 01:33:06;;;;;;;3.40;1.75;;;5.50;87.20;;;;;;5073670;28;20310;-67
2022/11/09 01:35:34;;;;;;;4.72;2.60;;;5.50;87.20;;;;;;5074304;28;20264;-66
2022/11/09 01:38:01;;;;;;;4.28;2.65;;;5.60;87.50;;;;;;5073906;28;20209;-67
2022/11/09 01:40:28;;;;;;;3.45;2.30;;;5.60;87.40;;;;;;5074111;28;20194;-66
2022/11/09 01:42:55;;;;;;;3.10;1.90;;;5.70;87.20;;;;;;5073287;28;20213;-66
2022/11/09 01:45:26;;;;;;;3.53;2.20;;;5.70;86.20;;;;;;5073573;28;20240;-66
2022/11/09 01:48:02;;;;;;;4.47;2.45;;;5.70;85.40;;;;;;5073955;28;20201;-66
2022/11/09 01:50:38;;;;;;;3.42;2.38;;;5.50;84.90;;;;;;5073328;28;20207;-66
2022/11/09 01:53:10;;;;;;;5.80;1.88;;;5.50;84.90;;;;;;5073748;28;20185;-66
2022/11/09 01:55:37;;;;;;;3.55;2.10;;;5.40;84.30;;;;;;5073801;28;20181;-67
2022/11/09 01:58:08;;;;;;;4.53;1.80;;;5.40;84.00;;;;;;5073593;28;20584;-67
2022/11/09 02:00:38;;;;;;;3.65;2.10;;;5.40;83.50;;;;;;5073327;28;20193;-67
2022/11/09 02:03:13;;;;;;;3.72;2.72;;;5.40;83.20;;;;;;5073267;28;20694;-66
2022/11/09 02:05:41;;;;;;;3.58;1.90;;;5.40;82.90;;;;;;5073577;28;20257;-67
2022/11/09 02:08:10;;;;;;;4.38;2.38;;;5.30;82.40;;;;;;5073506;28;20185;-66
2022/11/09 02:10:44;;;;;;;3.78;2.25;;;5.20;82.30;;;;;;5072963;28;20178;-67
2022/11/09 02:13:15;;;;;;;2.95;1.75;;;5.00;82.60;;;;;;5072777;28;20581;-66
2022/11/09 02:15:42;;;;;;;4.50;2.50;;;5.00;82.70;;;;;;5073224;28;20567;-66
2022/11/09 02:18:12;;;;;;;6.53;2.25;;;5.00;83.90;;;;;;5072706;28;20296;-67
2022/11/09 02:20:49;;;;;;;6.50;2.10;;;5.00;83.30;;;;;;5073303;28;20182;-67
2022/11/09 02:23:17;;;;;;;3.35;1.85;;;5.00;83.30;;;;;;5072087;28;20197;-66
2022/11/09 02:25:50;;;;;;;3.00;1.60;;;5.00;84.00;;;;;;5073160;28;20288;-66
2022/11/09 02:28:18;;;;;;;5.30;2.00;;;5.10;84.70;;;;;;5072690;28;20757;-66
2022/11/09 02:30:51;;;;;;;3.10;1.80;;;5.10;85.80;;;;;;5072548;28;20182;-67
2022/11/09 02:33:18;;;;;;;2.95;1.55;;;5.10;86.60;;;;;;5072580;28;20186;-66
2022/11/09 02:35:46;;;;;;;3.03;1.60;;;5.00;87.80;;;;;;5072775;28;20190;-66
2022/11/09 02:38:15;;;;;;;2.92;1.60;;;5.00;89.00;;;;;;5072675;28;20324;-67
2022/11/09 02:40:46;;;;;;;3.92;1.60;;;5.10;89.00;;;;;;5052924;28;20532;-67
2022/11/09 02:43:16;;;;;;;2.97;1.50;;;5.20;88.40;;;;;;5052678;28;20194;-67
2022/11/09 02:45:44;;;;;;;4.45;1.92;;;5.20;87.80;;;;;;5070888;28;20181;-67
2022/11/09 02:48:11;;;;;;;4.40;1.77;;;5.10;87.20;;;;;;5072326;28;20190;-67
2022/11/09 02:50:38;;;;;;;7.65;2.10;;;5.10;87.20;;;;;;5072564;28;20194;-67
2022/11/09 02:53:07;;;;;;;3.67;2.25;;;5.10;87.20;;;;;;5072436;28;20182;-68
2022/11/09 02:55:34;;;;;;;2.95;1.50;;;5.10;86.70;;;;;;5072795;28;20181;-67
2022/11/09 02:58:01;;;;;;;4.03;2.25;;;5.20;86.50;;;;;;5071675;28;20209;-67
2022/11/09 03:00:29;;;;;;;3.75;1.60;;;5.20;86.40;;;;;;5072599;28;20189;-66
2022/11/09 03:02:56;;;;;;;3.65;1.90;;;5.20;86.60;;;;;;5072026;28;20296;-66
2022/11/09 03:05:24;;;;;;;2.88;1.52;;;5.20;86.60;;;;;;5072214;28;20190;-66
2022/11/09 03:07:53;;;;;;;4.22;1.38;;;5.20;86.90;;;;;;5071995;28;20182;-67
2022/11/09 03:10:23;;;;;;;2.90;1.80;;;5.30;86.80;;;;;;5072353;28;20196;-66
2022/11/09 03:12:50;;;;;;;3.15;2.13;;;5.40;86.60;;;;;;5071766;28;20182;-67
2022/11/09 03:15:17;;;;;;;6.25;2.35;;;5.40;86.20;;;;;;5072049;28;20185;-66
2022/11/09 03:17:44;;;;;;;3.25;1.25;;;5.40;85.60;;;;;;5071683;28;20240;-66
2022/11/09 03:20:12;;;;;;;2.55;1.55;;;5.40;85.10;;;;;;5071850;28;20562;-68
2022/11/09 03:22:39;;;;;;;3.17;1.63;;;5.40;84.60;;;;;;5071461;28;20200;-67
2022/11/09 03:25:08;;;;;;;3.95;1.88;;;5.30;84.30;;;;;;5071920;28;20543;-66
2022/11/09 03:27:37;;;;;;;2.80;1.75;;;5.30;84.50;;;;;;5071569;28;20225;-67
2022/11/09 03:30:05;;;;;;;2.92;1.67;;;5.40;84.40;;;;;;5072047;28;20195;-66
2022/11/09 03:32:32;;;;;;;3.50;1.80;;;5.40;84.30;;;;;;5071599;28;20235;-66
2022/11/09 03:34:59;;;;;;;3.20;1.85;;;5.30;84.50;;;;;;5071781;28;20215;-67
2022/11/09 03:37:27;;;;;;;3.65;2.10;;;5.20;84.50;;;;;;5071302;28;20679;-66
2022/11/09 03:39:54;;;;;;;4.07;2.17;;;5.20;85.00;;;;;;5071191;28;20185;-66
2022/11/09 03:42:21;;;;;;;3.63;2.00;;;5.30;85.40;;;;;;5071294;28;20186;-67
2022/11/09 03:44:50;;;;;;;5.32;2.17;;;5.30;84.70;;;;;;5071943;28;20186;-66
2022/11/09 03:47:17;;;;;;;3.60;1.90;;;5.30;84.60;;;;;;5071121;28;20178;-66
2022/11/09 03:49:44;;;;;;;3.80;2.20;;;5.30;84.50;;;;;;5071831;28;20192;-67
2022/11/09 03:52:12;;;;;;;4.05;2.00;;;5.30;84.40;;;;;;5071023;28;20182;-66
2022/11/09 03:54:39;;;;;;;5.05;3.22;;;5.30;83.80;;;;;;5071587;28;20189;-67
2022/11/09 03:57:06;;;;;;;4.05;2.72;;;5.30;83.90;;;;;;5071215;28;20284;-66
2022/11/09 03:59:33;;;;;;;5.50;3.00;;;5.30;84.30;;;;;;5071631;28;20185;-66
2022/11/09 04:02:02;;;;;;;4.45;2.75;;;5.30;84.40;;;;;;5071088;28;20543;-67
2022/11/09 04:04:29;;;;;;;4.10;2.63;;;5.30;84.30;;;;;;5071650;28;20201;-66
2022/11/09 04:06:56;;;;;;;3.45;2.72;;;5.30;84.30;;;;;;5071195;28;20208;-66
2022/11/09 04:09:23;;;;;;;3.97;2.20;;;5.30;84.60;;;;;;5071393;28;20197;-67
2022/11/09 04:11:51;;;;;;;5.60;2.15;;;5.20;84.40;;;;;;5071503;28;20272;-67
2022/11/09 04:14:18;;;;;;;3.55;2.17;;;5.20;84.20;;;;;;5071383;28;20197;-66
2022/11/09 04:16:45;;;;;;;5.65;2.65;;;5.20;84.70;;;;;;5071223;28;20701;-67
2022/11/09 04:19:14;;;;;;;6.20;2.50;;;5.10;84.90;;;;;;5071432;28;20217;-67
2022/11/09 04:21:42;;;;;;;5.30;2.58;;;5.20;84.90;;;;;;5070725;28;20220;-67
2022/11/09 04:24:09;;;;;;;3.53;2.20;;;5.20;84.80;;;;;;5071512;28;20201;-67
2022/11/09 04:26:37;;;;;;;5.50;2.22;;;5.30;85.20;;;;;;5070875;28;20182;-67
2022/11/09 04:29:04;;;;;;;6.00;2.70;;;5.30;85.60;;;;;;5071366;28;20275;-66
2022/11/09 04:31:32;;;;;;;3.15;2.00;;;5.30;85.90;;;;;;5070872;28;20182;-66
2022/11/09 04:33:59;;;;;;;4.25;2.30;;;5.30;85.80;;;;;;5071523;28;20281;-66
2022/11/09 04:36:27;;;;;;;3.97;2.30;;;5.20;85.20;;;;;;5071169;28;20177;-67
2022/11/09 04:38:54;;;;;;;3.55;2.47;;;5.20;84.80;;;;;;5071155;28;20244;-66
2022/11/09 04:41:22;;;;;;;4.53;2.05;;;5.20;84.70;;;;;;5070641;28;20186;-66
2022/11/09 04:43:49;;;;;;;3.42;1.95;;;5.20;84.70;;;;;;5071245;28;20640;-66
2022/11/09 04:46:16;;;;;;;3.05;2.00;;;5.20;84.60;;;;;;5071225;28;20182;-66
2022/11/09 04:48:45;;;;;;;3.83;2.47;;;5.20;84.20;;;;;;5075064;28;20264;-67
2022/11/09 04:51:12;;;;;;;4.95;1.80;;;5.20;84.30;;;;;;5074452;28;20291;-67
2022/11/09 04:53:41;;;;;;;3.55;2.17;;;5.20;84.10;;;;;;5075034;28;20221;-67
2022/11/09 04:56:08;;;;;;;2.95;1.95;;;5.20;84.50;;;;;;5074957;28;20182;-66
2022/11/09 04:58:36;;;;;;;3.42;2.10;;;5.30;84.80;;;;;;5074852;28;20249;-66
2022/11/09 05:01:04;;;;;;;3.13;1.90;;;5.20;84.40;;;;;;5074572;28;20264;-67
2022/11/09 05:03:32;;;;;;;4.00;2.38;;;5.10;84.30;;;;;;5075153;28;20185;-67
2022/11/09 05:05:59;;;;;;;8.00;3.38;;;5.10;84.30;;;;;;5074504;28;20186;-66
2022/11/09 05:08:26;;;;;;;6.75;3.90;;;5.10;84.60;;;;;;5074784;28;20231;-67
2022/11/09 05:10:58;;;;;;;7.82;5.07;;;5.10;85.00;;;;;;5074371;28;20231;-67
2022/11/09 05:13:25;;;;;;;7.90;4.97;;;5.10;85.70;;;;;;5074708;28;20273;-67
2022/11/09 05:15:52;;;;;;;6.63;4.07;;;5.20;86.20;;;;;;5074932;28;20264;-66
2022/11/09 05:18:19;;;;;;;12.35;7.03;;;5.30;86.30;;;;;;5074580;28;20714;-67
2022/11/09 05:20:47;;;;;;;7.75;5.18;;;5.40;86.20;;;;;;5074060;28;20185;-67
2022/11/09 05:26:00;;;;;;;4.57;2.25;;;5.40;85.90;;;;;;5074464;28;20836;-67
2022/11/09 05:28:27;;;;;;;4.20;2.00;;;5.50;85.50;;;;;;5073745;28;20218;-67
2022/11/09 05:30:55;;;;;;;3.97;2.20;;;5.50;85.30;;;;;;5074431;28;20188;-66
2022/11/09 05:33:22;;;;;;;4.72;2.75;;;5.50;85.00;;;;;;5074198;28;20635;-66
2022/11/09 05:35:53;;;;;;;3.90;2.25;;;5.50;84.50;;;;;;5074407;28;20310;-66
2022/11/09 05:38:21;;;;;;;3.75;2.30;;;5.50;83.20;;;;;;5073820;28;20217;-67
2022/11/09 05:40:48;;;;;;;3.10;2.10;;;5.30;83.20;;;;;;5074305;28;20197;-66
2022/11/09 05:43:17;;;;;;;4.45;2.30;;;5.20;83.20;;;;;;5073995;28;20264;-66
2022/11/09 05:45:45;;;;;;;4.38;2.28;;;5.20;83.70;;;;;;5074642;28;20535;-66
2022/11/09 05:48:14;;;;;;;3.40;2.10;;;5.10;84.00;;;;;;5073308;28;20186;-67
2022/11/09 05:50:42;;;;;;;4.53;2.20;;;5.20;84.30;;;;;;5073518;28;20221;-67
2022/11/09 05:53:09;;;;;;;6.32;2.90;;;5.20;84.70;;;;;;5073900;28;20212;-66
2022/11/09 05:55:37;;;;;;;4.88;3.38;;;5.30;85.10;;;;;;5073940;28;20540;-66
2022/11/09 05:58:04;;;;;;;5.25;2.10;;;5.30;85.50;;;;;;5073756;28;20201;-67
2022/11/09 06:00:33;;;;;;;6.05;2.78;;;5.30;85.30;;;;;;5074343;28;20200;-66
2022/11/09 06:03:03;;;;;;;3.78;2.55;;;5.40;85.60;;;;;;5073562;28;20186;-67
2022/11/09 06:05:31;;;;;;;5.32;3.50;;;5.40;85.90;;;;;;5074217;28;20221;-66
2022/11/09 06:08:03;;;;;;;5.55;2.45;;;5.50;86.00;;;;;;5073239;28;20268;-66
2022/11/09 06:10:30;;;;;;;4.70;2.90;;;5.50;86.10;;;;;;5073924;28;20281;-66
2022/11/09 06:12:59;;;;;;;5.05;2.80;;;5.60;85.90;;;;;;5073194;28;20182;-67
2022/11/09 06:15:27;;;;;;;3.72;2.30;;;5.60;85.20;;;;;;5073393;28;20197;-66
2022/11/09 06:17:57;;;;;;;4.80;2.75;;;5.60;85.30;;;;;;5073348;28;20558;-66
2022/11/09 06:20:25;;;;;;;5.57;2.58;;;5.70;85.30;;;;;;5073836;28;20194;-66
2022/11/09 06:22:56;;;;;;;5.28;3.38;;;5.70;85.00;;;;;;5073000;28;20635;-66
2022/11/09 06:25:24;;;;;;;7.13;3.95;;;5.80;85.30;;;;;;5073278;28;20198;-66
2022/11/09 06:27:54;;;;;;;5.88;3.58;;;5.80;85.30;;;;;;5072761;28;20244;-66
2022/11/09 06:30:21;;;;;;;9.32;6.10;;;5.90;85.80;;;;;;5073412;28;20221;-66
2022/11/09 06:32:48;;;;;;;9.80;6.75;;;6.00;86.20;;;;;;5072745;28;20177;-66
2022/11/09 06:35:17;;;;;;;9.98;7.15;;;6.10;86.40;;;;;;5073398;28;20181;-66
2022/11/09 06:37:44;;;;;;;13.75;5.80;;;6.30;87.00;;;;;;5073158;28;20182;-66
2022/11/09 06:40:13;;;;;;;7.18;5.03;;;6.40;87.10;;;;;;5073091;28;20267;-67
2022/11/09 06:42:40;;;;;;;7.95;4.40;;;6.60;86.80;;;;;;5072625;28;20186;-67
2022/11/09 06:45:09;;;;;;;5.10;3.45;;;6.90;87.50;;;;;;5072867;28;20182;-66
2022/11/09 06:47:36;;;;;;;5.20;3.60;;;7.20;84.30;;;;;;5073154;28;20209;-66
2022/11/09 06:50:03;;;;;;;4.30;2.53;;;7.40;82.40;;;;;;5073066;28;20196;-68
2022/11/09 06:52:32;;;;;;;7.20;3.30;;;7.60;83.00;;;;;;5073035;28;20185;-66
2022/11/09 06:54:59;;;;;;;8.05;4.05;;;7.90;81.00;;;;;;5072910;28;20181;-66
2022/11/09 06:57:29;;;;;;;5.20;3.28;;;8.20;79.80;;;;;;5072619;28;20186;-67
2022/11/09 06:59:58;;;;;;;4.43;3.00;;;8.50;78.20;;;;;;5072878;28;20582;-66
2022/11/09 07:02:26;;;;;;;4.38;2.15;;;8.60;75.50;;;;;;5072453;28;20272;-67
2022/11/09 07:04:54;;;;;;;3.10;1.92;;;8.50;75.80;;;;;;5072746;28;20190;-67
2022/11/09 07:07:24;;;;;;;6.15;2.50;;;8.30;75.60;;;;;;5072284;28;20185;-67
2022/11/09 07:09:54;;;;;;;4.90;3.15;;;8.20;76.50;;;;;;5071745;28;20191;-67
2022/11/09 07:12:21;;;;;;;4.07;3.00;;;8.10;76.40;;;;;;5072169;28;20185;-67
2022/11/09 07:14:48;;;;;;;4.90;3.50;;;8.10;76.70;;;;;;5052378;28;20183;-67
2022/11/09 07:17:15;;;;;;;5.57;4.60;;;8.20;77.50;;;;;;5052693;28;20187;-67
2022/11/09 07:19:43;;;;;;;7.40;4.90;;;8.30;77.20;;;;;;5071183;28;20209;-67
2022/11/09 07:22:10;;;;;;;6.28;4.38;;;8.40;76.70;;;;;;5072733;28;20243;-66
2022/11/09 07:24:37;;;;;;;7.03;3.63;;;8.40;74.50;;;;;;5072119;28;20537;-67
2022/11/09 07:27:06;;;;;;;8.48;4.45;;;8.30;73.60;;;;;;5072261;28;20239;-67
2022/11/09 07:29:33;;;;;;;7.97;6.32;;;8.20;73.60;;;;;;5071732;28;20214;-68
2022/11/09 07:32:00;;;;;;;5.00;3.90;;;8.20;74.80;;;;;;5072411;28;20197;-66
2022/11/09 07:34:27;;;;;;;4.22;2.90;;;8.10;74.40;;;;;;5072179;28;20212;-66
2022/11/09 07:36:54;;;;;;;4.05;2.30;;;8.00;74.50;;;;;;5072533;28;20237;-66
2022/11/09 07:39:21;;;;;;;4.45;2.92;;;7.90;74.20;;;;;;5071535;28;20205;-67
2022/11/09 07:41:49;;;;;;;6.53;2.75;;;7.90;74.90;;;;;;5071889;28;20201;-66
2022/11/09 07:44:18;;;;;;;3.78;2.95;;;7.90;75.80;;;;;;5072154;28;20628;-67
2022/11/09 07:46:46;;;;;;;5.63;3.45;;;7.90;76.60;;;;;;5071892;28;20189;-67
2022/11/09 07:49:13;;;;;;;6.55;3.10;;;8.00;77.30;;;;;;5071398;28;20268;-66
2022/11/09 07:51:41;;;;;;;6.95;3.42;;;8.10;78.80;;;;;;5071871;28;20281;-66
2022/11/09 07:54:09;;;;;;;4.88;2.90;;;8.20;78.30;;;;;;5072165;28;20193;-67
2022/11/09 07:56:37;;;;;;;4.07;2.30;;;8.30;78.70;;;;;;5072053;28;20192;-67
2022/11/09 07:59:04;;;;;;;6.82;4.00;;;8.30;79.00;;;;;;5071437;28;20213;-66
2022/11/09 08:01:33;;;;;;;7.18;3.42;;;8.40;79.20;;;;;;5072115;28;20186;-67
2022/11/09 08:04:00;;;;;;;4.93;3.58;;;8.50;79.30;;;;;;5071779;28;20263;-66
2022/11/09 08:06:27;;;;;;;7.22;3.83;;;8.70;79.40;;;;;;5071332;28;20537;-67
2022/11/09 08:08:55;;;;;;;7.90;4.63;;;9.00;79.20;;;;;;5071444;28;20179;-66
2022/11/09 08:11:23;;;;;;;5.28;3.50;;;9.30;79.20;;;;;;5068641;28;20197;-67
2022/11/09 08:13:50;;;;;;;5.70;3.33;;;9.70;79.20;;;;;;5069572;28;20627;-67
2022/11/09 08:16:17;;;;;;;12.38;3.35;;;10.00;75.70;;;;;;5069628;28;20193;-67
2022/11/09 08:18:46;;;;;;;8.23;5.00;;;10.50;75.70;;;;;;5069273;28;20205;-67
2022/11/09 08:21:13;;;;;;;16.85;8.23;;;11.40;76.30;;;;;;5069653;28;20284;-67
2022/11/09 08:23:41;;;;;;;13.40;7.85;;;12.20;73.20;;;;;;5073899;28;20530;-67
2022/11/09 08:26:08;;;;;;;11.63;7.63;;;13.10;70.70;;;;;;5070198;28;20274;-67
2022/11/09 08:28:35;;;;;;;17.90;9.15;;;14.20;69.90;;;;;;5074249;28;20218;-67
2022/11/09 08:31:07;;;;;;;11.45;8.25;;;15.10;64.10;;;;;;5075195;28;20190;-67
2022/11/09 08:33:40;;;;;;;10.03;7.20;;;15.90;59.00;;;;;;5074116;28;20190;-67
2022/11/09 08:36:14;;;;;;;6.47;3.50;;;16.50;57.30;;;;;;5074958;28;20526;-67
2022/11/09 08:38:42;;;;;;;5.00;3.10;;;16.90;52.50;;;;;;5074139;28;20488;-68
2022/11/09 08:41:10;;;;;;;5.60;4.47;;;17.30;50.70;;;;;;5074638;28;20818;-67
2022/11/09 08:43:38;;;;;;;6.10;2.47;;;17.80;50.60;;;;;;5074305;28;20440;-68
2022/11/09 08:46:05;;;;;;;5.40;2.57;;;18.40;48.70;;;;;;5074207;28;20431;-69
2022/11/09 08:48:32;;;;;;;5.07;2.63;;;19.10;45.30;;;;;;5074043;28;20431;-68
2022/11/09 08:51:01;;;;;;;4.57;2.60;;;19.60;44.80;;;;;;5074436;28;20443;-67
2022/11/09 08:53:30;;;;;;;4.73;2.00;;;20.20;43.90;;;;;;5074110;28;20443;-67
2022/11/09 08:55:58;;;;;;;4.50;2.00;;;21.20;43.20;;;;;;5073493;28;20785;-68
2022/11/09 08:58:26;;;;;;;4.33;1.87;;;21.80;38.60;;;;;;5074128;28;20427;-68
2022/11/09 09:00:53;;;;;;;8.03;1.87;;;22.10;38.00;;;;;;5073943;28;20475;-68
2022/11/09 09:03:20;;;;;;;4.67;2.10;;;22.60;37.90;;;;;;5074496;28;20461;-68
2022/11/09 09:05:47;;;;;;;5.77;1.70;;;22.70;36.90;;;;;;5073654;28;20432;-67
2022/11/09 09:08:17;;;;;;;2.90;1.20;;;22.80;36.60;;;;;;5074512;28;20435;-65
2022/11/09 09:10:46;;;;;;;5.30;1.70;;;23.20;35.20;;;;;;5073350;28;20481;-65
2022/11/09 09:13:13;;;;;;;4.30;2.80;;;23.40;37.00;;;;;;5074798;28;20898;-66
2022/11/09 09:15:40;;;;;;;3.23;1.57;;;24.00;35.40;;;;;;5070789;28;20431;-66
2022/11/09 09:18:08;;;;;;;6.57;1.33;;;24.40;31.10;;;;;;5074237;28;21774;-65
2022/11/09 09:20:35;;;;;;;2.00;0.90;;;24.40;32.00;;;;;;5073911;28;20479;-65
2022/11/09 09:23:02;;;;;;;2.53;1.00;;;24.80;31.10;;;;;;5073767;28;20485;-66
2022/11/09 09:25:29;;;;;;;3.33;1.30;;;25.10;29.60;;;;;;5073522;28;20428;-66
2022/11/09 09:27:58;;;;;;;5.87;1.80;;;25.10;29.80;;;;;;5073582;28;20494;-65
2022/11/09 09:30:25;;;;;;;4.10;1.33;;;25.30;29.50;;;;;;5073481;28;20956;-66
2022/11/09 09:32:52;;;;;;;3.10;1.27;;;26.00;28.60;;;;;;5072961;28;20431;-66
2022/11/09 09:35:19;;;;;;;2.90;1.47;;;26.40;27.80;;;;;;5073173;28;20477;-65
2022/11/09 09:37:46;;;;;;;2.20;1.00;;;26.00;29.00;;;;;;5073791;28;20436;-65
2022/11/09 09:40:23;;;;;;;2.60;1.00;;;25.20;28.50;;;;;;5073077;28;21034;-65
2022/11/09 09:42:53;;;;;;;3.27;0.90;;;24.50;30.00;;;;;;5069776;28;20461;-65
2022/11/09 09:45:25;;;;;;;5.03;1.00;;;24.00;30.50;;;;;;5073636;28;20440;-65
2022/11/09 09:47:59;;;;;;;3.67;1.30;;;24.50;28.50;;;;;;5072928;28;20436;-66
2022/11/09 09:50:30;;;;;;;5.90;1.70;;;26.00;30.00;;;;;;5067209;28;20446;-66
2022/11/09 09:53:01;;;;;;;2.60;1.47;;;27.60;27.50;;;;;;5071501;28;20479;-69
2022/11/09 09:55:35;;;;;;;2.60;1.30;;;29.10;25.90;;;;;;5069268;28;20436;-66
2022/11/09 09:58:09;;;;;;;4.27;1.40;;;30.50;24.40;;;;;;5069615;28;20434;-66
2022/11/09 10:00:39;;;;;;;2.50;1.00;;;30.80;23.90;;;;;;5070654;28;20471;-66
2022/11/09 10:03:14;;;;;;;5.70;1.67;;;31.10;22.90;;;;;;5072574;28;20440;-67
2022/11/09 10:05:52;;;;;;;3.00;1.47;;;31.10;23.40;;;;;;5070939;28;20432;-66
2022/11/09 10:08:26;;;;;;;2.67;1.00;;;29.70;22.60;;;;;;5071158;28;20420;-67
2022/11/09 10:11:07;;;;;;;1.93;0.97;;;27.90;23.60;;;;;;5071826;28;20427;-66
2022/11/09 10:13:47;;;;;;;2.60;1.10;;;26.40;25.30;;;;;;5071683;28;20774;-67
2022/11/09 10:16:23;;;;;;;2.80;1.10;;;25.40;27.00;;;;;;5070884;28;20766;-66
2022/11/09 10:19:15;;;;;;;2.77;1.30;;;24.70;27.70;;;;;;5070657;28;20436;-66
2022/11/09 10:21:50;;;;;;;2.30;1.10;;;24.40;28.40;;;;;;5073416;28;20446;-66
2022/11/09 10:24:31;;;;;;;5.37;2.60;;;25.30;28.80;;;;;;5072857;28;20969;-66
2022/11/09 10:27:00;;;;;;;2.47;1.30;;;26.90;28.40;;;;;;5073997;28;20439;-66
2022/11/09 10:29:34;;;;;;;4.50;1.90;;;28.30;26.50;;;;;;5068424;28;20480;-66
2022/11/09 10:32:12;;;;;;;2.00;0.77;;;28.70;25.90;;;;;;5074293;28;20994;-66
2022/11/09 10:34:43;;;;;;;3.33;1.00;;;29.20;24.30;;;;;;5074632;28;20810;-66
2022/11/09 10:37:15;;;;;;;2.20;1.27;;;28.80;23.70;;;;;;5074247;28;20490;-66
2022/11/09 10:39:47;;;;;;;3.40;1.30;;;28.50;24.30;;;;;;5074451;28;20538;-66
2022/11/09 10:42:14;;;;;;;2.67;1.23;;;27.70;25.40;;;;;;5074539;28;20432;-67
2022/11/09 10:44:41;;;;;;;2.40;1.20;;;27.40;25.10;;;;;;5073875;28;20439;-67
2022/11/09 10:47:12;;;;;;;2.80;1.47;;;27.10;25.60;;;;;;5074004;28;20432;-67
2022/11/09 10:49:40;;;;;;;5.77;1.47;;;26.90;26.20;;;;;;5074497;28;20436;-66
2022/11/09 10:52:31;;;;;;;2.30;1.17;;;26.70;26.70;;;;;;5074495;28;20913;-66
2022/11/09 10:55:16;;;;;;;2.80;1.03;;;27.20;25.90;;;;;;5074260;28;20448;-66
2022/11/09 10:57:52;;;;;;;2.50;1.10;;;28.20;24.60;;;;;;5074298;28;20503;-66
2022/11/09 11:00:21;;;;;;;2.43;1.00;;;29.50;24.40;;;;;;5074314;28;20879;-66
2022/11/09 11:02:51;;;;;;;2.57;1.07;;;30.40;23.20;;;;;;5074252;28;20460;-67
2022/11/09 11:05:27;;;;;;;3.00;1.30;;;31.50;22.60;;;;;;5073697;28;20438;-67
2022/11/09 11:07:55;;;;;;;2.60;1.20;;;32.90;21.40;;;;;;5074142;28;20436;-67
2022/11/09 11:10:23;;;;;;;2.17;1.03;;;34.10;20.40;;;;;;5074129;28;20447;-67
2022/11/09 11:13:12;;;;;;;2.40;1.20;;;34.80;19.50;;;;;;5073889;28;20485;-67
2022/11/09 11:15:41;;;;;;;2.33;1.10;;;35.30;19.00;;;;;;5073833;28;20428;-68
2022/11/09 11:18:19;;;;;;;3.27;1.13;;;35.30;18.60;;;;;;5074000;28;20786;-67
2022/11/09 11:20:46;;;;;;;4.03;1.10;;;35.60;18.00;;;;;;5073049;28;20499;-67
2022/11/09 11:23:15;;;;;;;4.37;1.20;;;36.00;18.10;;;;;;5073620;28;20440;-67
2022/11/09 11:26:12;;;;;;;2.10;0.90;;;36.10;18.10;;;;;;5073784;28;20428;-67
2022/11/09 11:28:42;;;;;;;3.20;1.33;;;36.00;17.90;;;;;;5068530;28;20533;-68
2022/11/09 11:31:14;;;;;;;2.97;1.27;;;35.60;17.80;;;;;;5073579;28;20901;-67
2022/11/09 11:33:43;;;;;;;4.50;1.37;;;34.80;18.10;;;;;;5073877;28;20821;-67
2022/11/09 11:36:19;;;;;;;2.90;1.17;;;34.10;18.60;;;;;;5073590;28;20902;-67
2022/11/09 11:38:56;;;;;;;5.00;1.10;;;34.20;19.50;;;;;;5073587;28;20489;-67
2022/11/09 11:41:40;;;;;;;2.53;0.90;;;34.90;19.20;;;;;;5073572;28;20435;-68
2022/11/09 11:44:16;;;;;;;2.47;1.07;;;35.30;18.50;;;;;;5073450;28;20432;-68
2022/11/09 11:46:46;;;;;;;3.10;1.33;;;35.60;18.80;;;;;;5073549;28;20424;-67
2022/11/09 11:50:02;;;;;;;3.20;1.63;;;36.30;18.10;;;;;;5073554;28;20482;-67
2022/11/09 11:52:37;;;;;;;1.90;0.90;;;37.30;17.90;;;;;;5071642;28;20444;-67
2022/11/09 11:55:30;;;;;;;2.00;1.17;;;38.10;17.30;;;;;;5073290;28;20432;-68
2022/11/09 11:58:17;;;;;;;2.17;0.97;;;38.30;17.20;;;;;;5073325;28;20881;-67
2022/11/09 12:00:55;;;;;;;6.70;2.97;;;38.20;17.30;;;;;;5073335;28;20444;-67
2022/11/09 12:03:50;;;;;;;2.37;1.20;;;38.30;16.90;;;;;;5073126;28;20469;-67
2022/11/09 12:06:31;;;;;;;2.00;1.13;;;37.90;16.80;;;;;;5073452;28;20796;-67
2022/11/09 12:09:14;;;;;;;3.83;1.37;;;36.70;17.00;;;;;;5073310;28;20440;-67
2022/11/09 12:11:50;;;;;;;4.20;1.60;;;35.50;18.20;;;;;;5073110;28;20868;-67
2022/11/09 12:14:27;;;;;;;3.00;1.40;;;34.30;19.30;;;;;;5073192;28;20493;-67
2022/11/09 12:17:06;;;;;;;3.37;1.33;;;33.00;20.40;;;;;;5073241;28;20423;-67
2022/11/09 12:19:58;;;;;;;2.97;1.37;;;31.70;21.30;;;;;;5072829;28;20522;-67
2022/11/09 12:22:38;;;;;;;3.87;1.10;;;30.80;22.90;;;;;;5073055;28;20886;-67
2022/11/09 12:25:14;;;;;;;2.90;1.20;;;30.10;23.60;;;;;;5073265;28;20432;-67
2022/11/09 12:28:09;;;;;;;2.17;0.87;;;29.70;24.10;;;;;;5072290;28;20463;-67
2022/11/09 12:30:48;;;;;;;2.33;1.10;;;29.60;24.60;;;;;;5072702;28;20965;-68
2022/11/09 12:33:21;;;;;;;2.47;1.20;;;29.80;25.30;;;;;;5072921;28;20929;-66
2022/11/09 12:35:54;;;;;;;2.40;0.97;;;29.70;25.30;;;;;;5072918;28;20428;-66
2022/11/09 12:38:27;;;;;;;6.03;1.20;;;29.50;25.00;;;;;;5072731;28;20890;-66
2022/11/09 12:41:00;;;;;;;2.37;1.00;;;29.10;25.40;;;;;;5072816;28;20432;-67
2022/11/09 12:43:32;;;;;;;2.63;1.10;;;28.70;25.50;;;;;;5072780;28;20431;-67
2022/11/09 12:46:01;;;;;;;3.20;1.13;;;28.10;26.40;;;;;;5073103;28;20440;-66
2022/11/09 12:48:30;;;;;;;2.67;1.17;;;27.50;27.10;;;;;;5072797;28;20507;-66
2022/11/09 12:50:59;;;;;;;5.10;2.03;;;26.90;27.30;;;;;;5072861;28;20518;-67
2022/11/09 12:53:30;;;;;;;2.47;1.20;;;26.30;28.60;;;;;;5072795;28;20450;-66
2022/11/09 12:56:01;;;;;;;3.00;1.43;;;25.80;29.60;;;;;;5072789;28;20423;-66
2022/11/09 12:58:30;;;;;;;2.30;0.90;;;25.30;30.40;;;;;;5072469;28;20433;-66
2022/11/09 13:00:58;;;;;;;3.03;1.27;;;24.70;31.00;;;;;;5072673;28;20485;-67
2022/11/09 13:03:28;;;;;;;2.20;1.00;;;24.40;32.10;;;;;;5072676;28;20485;-66
2022/11/09 13:06:17;;;;;;;4.97;1.00;;;24.30;32.50;;;;;;5072786;28;20440;-66
2022/11/09 13:08:59;;;;;;;2.87;1.37;;;24.40;32.70;;;;;;5075218;28;20432;-66
2022/11/09 13:11:36;;;;;;;2.47;1.10;;;24.40;32.60;;;;;;5076281;28;20483;-66